Time;durP1;ratioP1;P1;durP2;ratioP2;P2;SDS_P1;SDS_P2;PMS_P1;PMS_P2;Temp;Humidity;BMP_temperature;BMP_pressure;BME280_temperature;BME280_humidity;BME280_pressure;Samples;Min_cycle;Max_cycle;Signal;HPM_P1;HPM_P2
2022/07/12 14:48:03;;;;;;;2.42;0.85;;;27.60;77.60;;;;;;5769905;23;20056;-72
2022/07/12 14:50:28;;;;;;;0.77;0.70;;;27.60;80.50;;;;;;4925406;29;20562;-78
2022/07/12 14:52:54;;;;;;;1.97;0.77;;;27.60;75.40;;;;;;4902496;29;20099;-70
2022/07/12 14:55:20;;;;;;;0.73;0.67;;;27.50;75.20;;;;;;4924107;29;20118;-69
2022/07/12 14:57:45;;;;;;;0.87;0.80;;;27.50;73.90;;;;;;4930619;29;20055;-68
2022/07/12 15:00:12;;;;;;;1.57;0.60;;;27.40;76.20;;;;;;4929229;29;20138;-68
2022/07/12 15:02:38;;;;;;;3.17;0.75;;;27.40;78.80;;;;;;4929577;29;20062;-70
2022/07/12 15:05:07;;;;;;;0.60;0.60;;;27.40;78.60;;;;;;4931307;29;20122;-69
2022/07/12 15:07:33;;;;;;;1.13;0.70;;;27.40;76.20;;;;;;4926814;29;20043;-70
2022/07/12 15:09:59;;;;;;;0.77;0.70;;;27.50;72.80;;;;;;4927040;29;20107;-70
2022/07/12 15:12:25;;;;;;;2.27;0.70;;;27.40;73.20;;;;;;4912430;29;20920;-68
2022/07/12 15:14:51;;;;;;;0.95;0.60;;;27.40;72.00;;;;;;4911985;29;20051;-68
2022/07/12 15:17:18;;;;;;;2.97;0.70;;;27.40;72.00;;;;;;4924417;29;20046;-68
2022/07/12 15:19:45;;;;;;;1.42;0.70;;;27.30;73.50;;;;;;4926466;29;20043;-67
2022/07/12 15:22:12;;;;;;;2.28;0.80;;;27.30;77.60;;;;;;4923777;29;20142;-70
2022/07/12 15:24:38;;;;;;;0.77;0.77;;;27.30;79.50;;;;;;4908130;29;20078;-68
2022/07/12 15:27:06;;;;;;;1.88;0.70;;;27.30;82.40;;;;;;4925374;29;20075;-69
2022/07/12 15:29:32;;;;;;;1.23;0.80;;;27.30;86.00;;;;;;4928959;29;20083;-68
2022/07/12 15:31:58;;;;;;;1.15;0.77;;;27.40;84.00;;;;;;4931595;29;20048;-69
2022/07/12 15:34:24;;;;;;;1.27;0.73;;;27.30;81.80;;;;;;4930965;29;20058;-69
2022/07/12 15:36:49;;;;;;;2.23;0.80;;;27.30;83.90;;;;;;4923562;29;20139;-67
2022/07/12 15:39:15;;;;;;;2.00;0.97;;;27.30;84.80;;;;;;4925409;29;20035;-70
2022/07/12 15:41:41;;;;;;;1.43;0.80;;;27.30;87.10;;;;;;4909428;29;20043;-70
2022/07/12 15:44:07;;;;;;;2.63;0.70;;;27.30;90.10;;;;;;4928239;29;20048;-70
2022/07/12 15:46:32;;;;;;;1.10;0.83;;;27.40;88.90;;;;;;4930050;29;20051;-69
2022/07/12 15:48:58;;;;;;;2.03;0.80;;;27.40;88.90;;;;;;4922025;29;20087;-70
2022/07/12 15:53:27;;;;;;;2.80;0.80;;;27.50;85.30;;;;;;4921175;29;20075;-70
2022/07/12 15:54:10;;;;;;;1.25;0.80;;;27.50;85.60;;;;;;4928578;29;20054;-70
2022/07/12 15:56:42;;;;;;;1.70;0.80;;;27.50;84.10;;;;;;4927337;29;20036;-70
2022/07/12 15:59:07;;;;;;;1.70;0.80;;;27.60;86.50;;;;;;4931676;29;20142;-70
2022/07/12 16:01:34;;;;;;;2.07;0.70;;;27.60;87.70;;;;;;4928794;29;20226;-70
2022/07/12 16:03:59;;;;;;;4.85;1.10;;;27.60;84.20;;;;;;4925973;29;20518;-70
2022/07/12 16:06:25;;;;;;;2.33;0.83;;;27.50;81.90;;;;;;4932809;29;20078;-70
2022/07/12 16:08:50;;;;;;;3.93;0.97;;;27.50;82.30;;;;;;4931840;29;20039;-70
2022/07/12 16:11:16;;;;;;;2.40;0.80;;;27.50;82.50;;;;;;4916150;29;20398;-70
2022/07/12 16:13:42;;;;;;;1.10;1.00;;;27.40;84.40;;;;;;4944679;29;20047;-70
2022/07/12 16:16:07;;;;;;;1.87;0.80;;;27.40;83.40;;;;;;4914694;29;20075;-70
2022/07/12 16:18:34;;;;;;;1.70;0.77;;;27.30;84.20;;;;;;4922725;29;20051;-70
2022/07/12 16:20:59;;;;;;;2.30;1.00;;;27.30;86.50;;;;;;4931520;29;20039;-70
2022/07/12 16:23:25;;;;;;;2.77;0.90;;;27.20;88.70;;;;;;4930632;29;20151;-70
2022/07/12 16:25:51;;;;;;;0.90;0.90;;;27.20;85.10;;;;;;4929589;29;20044;-69
2022/07/12 16:28:16;;;;;;;3.70;0.80;;;27.20;85.00;;;;;;4913916;29;20037;-70
2022/07/12 16:30:42;;;;;;;1.37;0.83;;;27.10;84.20;;;;;;4936709;29;20047;-70
2022/07/12 16:33:11;;;;;;;2.90;1.10;;;27.10;85.10;;;;;;4931418;29;20048;-70
2022/07/12 16:35:37;;;;;;;6.50;1.30;;;27.10;83.80;;;;;;4932977;29;20051;-70
2022/07/12 16:38:04;;;;;;;1.25;1.00;;;27.00;85.60;;;;;;4935163;29;20392;-70
2022/07/12 16:40:30;;;;;;;2.70;0.90;;;26.90;89.00;;;;;;4935426;29;20054;-69
2022/07/12 16:42:58;;;;;;;2.05;1.10;;;26.90;92.10;;;;;;4933992;29;20044;-70
2022/07/12 16:45:28;;;;;;;2.78;0.90;;;26.90;92.90;;;;;;4929407;29;20050;-70
2022/07/12 16:47:54;;;;;;;1.65;1.10;;;26.90;92.20;;;;;;4932268;29;20051;-69
2022/07/12 16:50:20;;;;;;;2.05;1.00;;;26.90;92.30;;;;;;4943258;29;20573;-69
2022/07/12 16:52:46;;;;;;;1.10;1.10;;;26.80;93.00;;;;;;4934614;29;20039;-70
2022/07/12 16:55:12;;;;;;;3.15;1.30;;;26.80;92.90;;;;;;4934143;29;20047;-70
2022/07/12 16:57:37;;;;;;;4.00;1.10;;;26.80;93.70;;;;;;4918893;29;20633;-70
2022/07/12 17:00:09;;;;;;;2.25;0.98;;;26.70;94.50;;;;;;4931145;29;20568;-70
2022/07/12 17:02:37;;;;;;;3.17;1.20;;;26.70;95.20;;;;;;4916059;29;20186;-71
2022/07/12 17:05:03;;;;;;;2.15;1.30;;;26.70;94.80;;;;;;4916668;29;20055;-70
2022/07/12 17:07:28;;;;;;;1.60;1.50;;;26.60;95.20;;;;;;4934281;29;20118;-69
2022/07/12 17:09:54;;;;;;;1.73;1.37;;;26.60;95.60;;;;;;4936244;29;20202;-69
2022/07/12 17:12:20;;;;;;;1.93;1.40;;;26.60;96.10;;;;;;4934208;29;20044;-69
2022/07/12 17:14:46;;;;;;;3.75;1.30;;;26.50;95.80;;;;;;4935469;29;20534;-67
2022/07/12 17:17:13;;;;;;;1.87;1.20;;;26.50;96.00;;;;;;4933149;29;20103;-69
2022/07/12 17:19:39;;;;;;;7.00;1.48;;;26.40;95.40;;;;;;4935059;29;20534;-68
2022/07/12 17:22:05;;;;;;;2.93;1.27;;;26.40;95.60;;;;;;4934102;29;20043;-69
2022/07/12 17:24:31;;;;;;;;;;;26.40;96.40;;;;;;4918489;29;20130;-69
2022/07/12 17:26:57;;;;;;;3.03;1.50;;;26.30;97.90;;;;;;4931102;29;20013;-69
2022/07/12 17:29:25;;;;;;;3.53;1.40;;;26.30;97.20;;;;;;4915457;29;20431;-69
2022/07/12 17:31:51;;;;;;;2.58;1.58;;;26.30;97.70;;;;;;4927243;29;20411;-69
2022/07/12 17:34:18;;;;;;;6.50;1.60;;;26.30;98.00;;;;;;4931148;29;20063;-69
2022/07/12 17:36:45;;;;;;;3.97;1.40;;;26.20;98.10;;;;;;4925619;29;20050;-69
2022/07/12 17:39:11;;;;;;;4.20;1.60;;;26.20;98.70;;;;;;4929069;29;20118;-69
2022/07/12 17:41:37;;;;;;;1.70;1.40;;;26.20;99.90;;;;;;4931035;29;20118;-68
2022/07/12 17:44:02;;;;;;;6.53;2.35;;;26.20;99.90;;;;;;4934997;29;20319;-69
2022/07/12 17:46:28;;;;;;;4.63;2.27;;;26.10;99.90;;;;;;4915162;29;20479;-69
2022/07/12 17:48:55;;;;;;;4.87;1.80;;;26.10;99.90;;;;;;4933537;29;20048;-69
2022/07/12 17:51:21;;;;;;;3.15;1.92;;;26.10;99.90;;;;;;4929177;29;20134;-69
2022/07/12 17:53:47;;;;;;;3.53;2.00;;;26.10;99.90;;;;;;4932633;29;20091;-69
2022/07/12 17:56:16;;;;;;;3.90;1.60;;;26.00;99.90;;;;;;4932948;29;20130;-69
2022/07/12 17:58:43;;;;;;;2.15;1.42;;;25.90;99.90;;;;;;4934529;29;20462;-69
2022/07/12 18:01:23;;;;;;;3.92;1.58;;;25.90;99.90;;;;;;4932455;29;20082;-69
2022/07/12 18:03:52;;;;;;;2.38;1.67;;;25.90;99.90;;;;;;4917091;29;20137;-69
2022/07/12 18:06:18;;;;;;;4.97;1.60;;;25.90;99.90;;;;;;4929344;29;20110;-69
2022/07/12 18:08:44;;;;;;;3.30;1.90;;;25.90;99.90;;;;;;4933468;29;20046;-69
2022/07/12 18:16:41;;;;;;;3.35;1.67;;;25.80;99.90;;;;;;4939434;29;20051;-69
2022/07/12 18:19:07;;;;;;;1.52;1.40;;;25.80;99.90;;;;;;4933631;29;20497;-69
2022/07/12 18:21:33;;;;;;;;;;;25.70;99.90;;;;;;4934660;29;20079;-69
2022/07/12 18:23:59;;;;;;;2.88;1.50;;;25.70;99.90;;;;;;4931783;29;20362;-69
2022/07/12 18:26:27;;;;;;;1.50;1.40;;;25.60;99.90;;;;;;4914932;29;20134;-69
2022/07/12 18:28:53;;;;;;;3.22;1.10;;;25.60;99.90;;;;;;4929621;29;20687;-69
2022/07/12 18:31:21;;;;;;;2.42;1.30;;;25.60;99.90;;;;;;4925158;29;20044;-69
2022/07/12 18:33:48;;;;;;;1.40;1.30;;;25.60;99.90;;;;;;4927892;29;20106;-69
2022/07/12 18:36:13;;;;;;;;;;;25.60;99.90;;;;;;4924594;29;20530;-69
2022/07/12 18:38:39;;;;;;;1.80;1.43;;;25.60;99.90;;;;;;4932365;29;20041;-69
2022/07/12 18:41:05;;;;;;;1.30;1.20;;;25.60;99.90;;;;;;4924580;29;20503;-69
2022/07/12 18:43:30;;;;;;;2.17;1.25;;;25.50;99.90;;;;;;4926590;29;20055;-69
2022/07/12 18:45:56;;;;;;;2.10;1.33;;;25.50;99.90;;;;;;4931867;29;20055;-68
2022/07/12 18:48:22;;;;;;;1.57;1.30;;;25.50;99.90;;;;;;4932272;29;20087;-68
2022/07/12 18:50:48;;;;;;;2.67;1.50;;;25.50;99.90;;;;;;4927819;29;20047;-69
2022/07/12 18:53:17;;;;;;;3.87;1.43;;;25.40;99.90;;;;;;4935026;29;20138;-69
2022/07/12 18:55:42;;;;;;;2.30;1.30;;;25.40;99.90;;;;;;4933834;29;20102;-69
2022/07/12 18:58:08;;;;;;;2.53;1.52;;;25.30;99.90;;;;;;4931195;29;20506;-68
2022/07/12 19:00:33;;;;;;;3.80;1.60;;;25.30;99.90;;;;;;4922849;29;20086;-69
2022/07/12 19:02:59;;;;;;;3.00;1.70;;;25.30;99.90;;;;;;4930045;29;20132;-69
2022/07/12 19:05:25;;;;;;;3.57;1.73;;;25.20;99.90;;;;;;4908328;29;20047;-69
2022/07/12 19:07:50;;;;;;;4.95;1.70;;;25.20;99.90;;;;;;4930923;29;20051;-70
2022/07/12 19:10:16;;;;;;;1.70;1.60;;;25.10;99.90;;;;;;4910523;29;20044;-69
2022/07/12 19:12:41;;;;;;;4.17;2.00;;;25.00;99.90;;;;;;4932283;29;20095;-69
2022/07/12 19:15:08;;;;;;;2.22;1.90;;;25.00;99.90;;;;;;4904852;29;20055;-69
2022/07/12 19:17:34;;;;;;;6.95;3.50;;;24.90;99.90;;;;;;4912026;29;20103;-69
2022/07/12 19:19:59;;;;;;;6.37;3.40;;;24.90;99.90;;;;;;4926250;29;20475;-68
2022/07/12 19:22:27;;;;;;;4.77;2.80;;;24.80;99.90;;;;;;4926483;29;20044;-69
2022/07/12 19:24:56;;;;;;;5.97;2.78;;;24.80;99.90;;;;;;4928042;29;20035;-69
2022/07/12 19:27:21;;;;;;;5.65;2.58;;;24.80;99.90;;;;;;4931822;29;20141;-69
2022/07/12 19:29:47;;;;;;;7.50;2.40;;;24.70;99.90;;;;;;4920966;29;20044;-69
2022/07/12 19:32:14;;;;;;;4.97;1.90;;;24.60;99.90;;;;;;4932611;29;20048;-69
2022/07/12 19:34:40;;;;;;;6.28;2.60;;;24.60;99.90;;;;;;4928207;29;20495;-69
2022/07/12 19:37:05;;;;;;;4.50;1.55;;;24.50;99.90;;;;;;4933115;29;20126;-69
2022/07/12 19:39:31;;;;;;;6.07;2.20;;;24.40;99.90;;;;;;4931346;29;20106;-68
2022/07/12 19:41:57;;;;;;;4.95;2.30;;;24.30;99.90;;;;;;4931809;29;20559;-69
2022/07/12 19:44:22;;;;;;;4.03;2.00;;;24.30;99.90;;;;;;4932480;29;20047;-69
2022/07/12 19:46:48;;;;;;;2.97;2.10;;;24.20;99.90;;;;;;4927895;29;20079;-69
2022/07/12 19:49:13;;;;;;;4.40;1.98;;;24.20;99.90;;;;;;4922978;29;20570;-68
2022/07/12 19:51:39;;;;;;;2.20;1.90;;;24.10;99.90;;;;;;4913967;29;20056;-68
2022/07/12 19:54:05;;;;;;;3.00;1.63;;;24.00;99.90;;;;;;4921617;29;20047;-67
2022/07/12 19:56:30;;;;;;;2.20;1.60;;;24.00;99.90;;;;;;4931290;29;20090;-68
2022/07/12 19:58:59;;;;;;;4.13;1.92;;;23.90;99.90;;;;;;4926548;29;20091;-69
2022/07/12 20:01:24;;;;;;;2.38;1.80;;;23.80;99.90;;;;;;4930871;29;20549;-68
2022/07/12 20:03:50;;;;;;;2.50;1.92;;;23.70;99.90;;;;;;4923063;29;20399;-68
2022/07/12 20:06:15;;;;;;;2.15;1.60;;;23.70;99.90;;;;;;4930473;29;20130;-68
2022/07/12 20:08:41;;;;;;;2.10;1.80;;;23.60;99.90;;;;;;4931885;29;20043;-69
2022/07/12 20:11:07;;;;;;;3.22;2.03;;;23.60;99.90;;;;;;4924693;29;20191;-69
2022/07/12 20:13:32;;;;;;;2.55;1.80;;;23.50;99.90;;;;;;4905068;29;20483;-69
2022/07/12 20:15:58;;;;;;;2.47;1.88;;;23.50;99.90;;;;;;4915487;29;20063;-69
2022/07/12 20:18:24;;;;;;;3.20;1.70;;;23.40;99.90;;;;;;4914735;29;20063;-69
2022/07/12 20:20:50;;;;;;;2.58;1.88;;;23.40;99.90;;;;;;4925152;29;20655;-69
2022/07/12 20:23:16;;;;;;;5.22;1.90;;;23.30;99.90;;;;;;4930345;29;20044;-68
2022/07/12 20:25:42;;;;;;;3.00;1.95;;;23.30;99.90;;;;;;4930008;29;20397;-69
2022/07/12 20:28:08;;;;;;;2.00;1.60;;;23.30;99.90;;;;;;4928753;29;20043;-69
2022/07/12 20:30:35;;;;;;;2.85;2.20;;;23.30;99.90;;;;;;4923358;29;20044;-68
2022/07/12 20:35:44;;;;;;;4.10;2.42;;;23.20;99.90;;;;;;4922695;29;19918;-69
2022/07/12 20:38:10;;;;;;;4.03;2.30;;;23.20;99.90;;;;;;4928686;29;20042;-69
2022/07/12 20:40:36;;;;;;;3.13;2.10;;;23.30;99.90;;;;;;4929175;29;20123;-68
2022/07/12 20:43:01;;;;;;;3.20;2.40;;;23.30;99.90;;;;;;4907231;29;20131;-69
2022/07/12 20:45:28;;;;;;;3.00;2.20;;;23.30;99.90;;;;;;4928659;29;20407;-69
2022/07/12 20:47:53;;;;;;;4.07;2.40;;;23.20;99.90;;;;;;4927667;29;20040;-69
2022/07/12 20:50:19;;;;;;;4.95;2.35;;;23.10;99.90;;;;;;4931194;29;20358;-68
2022/07/12 20:52:45;;;;;;;4.35;2.13;;;23.10;99.90;;;;;;4925915;29;20044;-70
2022/07/12 20:55:11;;;;;;;2.47;2.10;;;23.10;99.90;;;;;;4904230;29;20079;-68
2022/07/12 20:57:37;;;;;;;2.78;2.50;;;23.10;99.90;;;;;;4913618;29;20035;-68
2022/07/12 21:00:06;;;;;;;2.60;2.10;;;23.00;99.90;;;;;;4927162;29;20192;-68
2022/07/12 21:02:32;;;;;;;3.72;2.50;;;23.00;99.90;;;;;;4922384;29;20051;-68
2022/07/12 21:04:57;;;;;;;5.00;2.30;;;23.00;99.90;;;;;;4922095;29;20125;-68
2022/07/12 21:07:23;;;;;;;3.90;2.17;;;23.00;99.90;;;;;;4910942;29;20483;-68
2022/07/12 21:09:49;;;;;;;2.42;2.20;;;23.00;99.90;;;;;;4913900;29;20070;-69
2022/07/12 21:12:15;;;;;;;2.95;2.40;;;23.00;99.90;;;;;;4931333;29;20044;-68
2022/07/12 21:14:41;;;;;;;3.30;2.22;;;23.00;99.90;;;;;;4909853;29;20039;-68
2022/07/12 21:17:07;;;;;;;4.55;2.55;;;23.10;99.90;;;;;;4930358;29;20584;-68
2022/07/12 21:19:33;;;;;;;2.92;2.40;;;23.00;99.90;;;;;;4931017;29;20039;-68
2022/07/12 21:21:59;;;;;;;2.70;2.45;;;23.00;99.90;;;;;;4926311;29;20675;-68
2022/07/12 21:24:25;;;;;;;3.42;3.10;;;23.00;99.90;;;;;;4931508;29;20039;-68
2022/07/12 21:26:51;;;;;;;2.83;2.20;;;23.00;99.90;;;;;;4932407;29;20036;-68
2022/07/12 21:29:16;;;;;;;7.88;2.78;;;23.00;99.90;;;;;;4934766;29;20051;-68
2022/07/12 21:31:42;;;;;;;2.97;2.72;;;22.90;99.90;;;;;;4930700;29;20043;-68
2022/07/12 21:34:08;;;;;;;3.00;2.70;;;22.90;99.90;;;;;;4908147;29;20043;-68
2022/07/12 21:36:34;;;;;;;3.25;2.35;;;22.90;99.90;;;;;;4931964;29;20131;-68
2022/07/12 21:39:03;;;;;;;4.57;2.35;;;22.90;99.90;;;;;;4927737;29;20075;-68
2022/07/12 21:41:29;;;;;;;2.85;2.05;;;22.90;99.90;;;;;;4933992;29;20044;-69
2022/07/12 21:43:55;;;;;;;2.58;1.90;;;22.90;99.90;;;;;;4932100;29;20055;-68
2022/07/12 21:46:21;;;;;;;3.33;2.17;;;22.80;99.90;;;;;;4931981;29;20046;-68
2022/07/12 21:48:47;;;;;;;2.95;2.03;;;22.80;99.90;;;;;;4926904;29;20054;-68
2022/07/12 21:51:12;;;;;;;4.35;2.05;;;22.70;99.90;;;;;;4929572;29;20048;-68
2022/07/12 21:53:38;;;;;;;3.08;2.40;;;22.70;99.90;;;;;;4922502;29;20127;-69
2022/07/12 21:56:04;;;;;;;3.00;2.20;;;22.60;99.90;;;;;;4931418;29;20119;-69
2022/07/12 21:58:30;;;;;;;4.95;2.75;;;22.60;99.90;;;;;;4931074;29;20035;-68
2022/07/12 22:00:56;;;;;;;4.65;3.00;;;22.60;99.90;;;;;;4923320;29;20082;-68
2022/07/12 22:03:22;;;;;;;4.57;2.90;;;22.60;99.90;;;;;;4921818;29;20226;-68
2022/07/12 22:05:48;;;;;;;3.60;2.70;;;22.50;99.90;;;;;;4908815;29;20048;-69
2022/07/12 22:08:13;;;;;;;3.40;2.58;;;22.50;99.90;;;;;;4926065;29;20498;-68
2022/07/12 22:10:39;;;;;;;3.17;2.50;;;22.40;99.90;;;;;;4929171;29;20398;-69
2022/07/12 22:13:05;;;;;;;4.78;2.90;;;22.40;99.90;;;;;;4927522;29;20070;-68
2022/07/12 22:15:30;;;;;;;3.30;3.00;;;22.40;99.90;;;;;;4926882;29;20087;-68
2022/07/12 22:17:58;;;;;;;3.47;3.17;;;22.40;99.90;;;;;;4924988;29;20055;-68
2022/07/12 22:20:24;;;;;;;5.28;3.22;;;22.40;99.90;;;;;;4908012;29;20090;-69
2022/07/12 22:22:50;;;;;;;4.00;3.28;;;22.40;99.90;;;;;;4908364;29;20052;-68
2022/07/12 22:25:15;;;;;;;8.73;3.88;;;22.40;99.90;;;;;;4908489;29;20164;-68
2022/07/12 22:27:41;;;;;;;4.45;3.47;;;22.40;99.90;;;;;;4927622;29;20098;-69
2022/07/12 22:30:07;;;;;;;4.55;3.47;;;22.50;99.90;;;;;;4909087;29;20059;-69
2022/07/12 22:32:32;;;;;;;4.35;3.00;;;22.40;99.90;;;;;;4924941;29;20047;-68
2022/07/12 22:35:01;;;;;;;4.55;3.20;;;22.40;99.90;;;;;;4930369;29;20040;-69
2022/07/12 22:37:26;;;;;;;4.20;3.60;;;22.40;99.90;;;;;;4926546;29;20403;-68
2022/07/12 22:39:52;;;;;;;4.43;3.80;;;22.40;99.90;;;;;;4903963;29;20044;-69
2022/07/12 22:42:18;;;;;;;4.25;3.75;;;22.40;99.90;;;;;;4921686;29;20039;-68
2022/07/12 22:44:43;;;;;;;4.68;4.10;;;22.40;99.90;;;;;;4927452;29;20107;-69
2022/07/12 22:47:09;;;;;;;4.97;3.97;;;22.40;99.90;;;;;;4929126;29;20098;-68
2022/07/12 22:49:35;;;;;;;5.35;4.15;;;22.30;99.90;;;;;;4924602;29;20043;-68
2022/07/12 22:52:00;;;;;;;5.05;3.85;;;22.30;99.90;;;;;;4913113;29;20506;-68
2022/07/12 22:54:26;;;;;;;5.72;3.88;;;22.30;99.90;;;;;;4926739;29;20135;-68
2022/07/12 22:56:52;;;;;;;4.50;3.90;;;22.30;99.90;;;;;;4929955;29;20048;-68
2022/07/12 22:59:18;;;;;;;5.38;4.40;;;22.30;99.90;;;;;;4930694;29;20403;-68
2022/07/12 23:01:43;;;;;;;4.82;4.40;;;22.20;99.90;;;;;;4912163;29;20040;-68
2022/07/12 23:04:09;;;;;;;5.88;4.40;;;22.20;99.90;;;;;;4921574;29;20051;-68
2022/07/12 23:06:36;;;;;;;5.10;4.32;;;22.20;99.90;;;;;;4930071;29;20036;-68
2022/07/12 23:09:03;;;;;;;9.45;4.63;;;22.10;99.90;;;;;;4907493;29;20518;-68
2022/07/12 23:11:31;;;;;;;6.57;4.45;;;22.00;99.90;;;;;;4932145;29;20172;-68
2022/07/12 23:13:57;;;;;;;6.22;3.83;;;22.00;99.90;;;;;;4928727;29;20095;-68
2022/07/12 23:16:22;;;;;;;4.90;3.72;;;21.90;99.90;;;;;;4915073;29;20062;-68
2022/07/12 23:18:48;;;;;;;6.43;5.10;;;21.90;99.90;;;;;;4922058;29;20036;-68
2022/07/12 23:21:13;;;;;;;5.72;4.60;;;21.90;99.90;;;;;;4932198;29;20074;-68
2022/07/12 23:23:39;;;;;;;5.30;4.80;;;21.90;99.90;;;;;;4931955;29;20043;-68
2022/07/12 23:26:08;;;;;;;5.38;4.88;;;21.80;99.90;;;;;;4922311;29;20048;-68
2022/07/12 23:28:34;;;;;;;5.40;4.90;;;21.80;99.90;;;;;;4926941;29;20100;-68
2022/07/12 23:31:00;;;;;;;6.77;5.30;;;21.80;99.90;;;;;;4917781;29;20381;-69
2022/07/12 23:33:26;;;;;;;7.75;5.40;;;21.70;99.90;;;;;;4926417;29;20307;-68
2022/07/12 23:35:51;;;;;;;7.25;5.55;;;21.70;99.90;;;;;;4913686;29;20054;-68
2022/07/12 23:38:17;;;;;;;7.00;5.20;;;21.70;99.90;;;;;;4925336;29;20044;-68
2022/07/12 23:40:44;;;;;;;6.88;6.00;;;21.80;99.90;;;;;;4928234;29;20047;-69
2022/07/12 23:43:10;;;;;;;;;;;21.80;99.90;;;;;;4931040;29;20039;-69
2022/07/12 23:45:36;;;;;;;6.87;6.20;;;21.70;99.90;;;;;;4909940;29;19930;-67
2022/07/12 23:48:01;;;;;;;7.05;6.45;;;21.70;99.90;;;;;;4928264;29;20048;-68
2022/07/12 23:50:27;;;;;;;7.82;6.38;;;21.80;99.90;;;;;;4904719;29;20052;-68
2022/07/12 23:52:56;;;;;;;7.03;6.15;;;21.80;99.90;;;;;;4906440;29;20056;-68
2022/07/12 23:55:22;;;;;;;7.22;6.45;;;21.80;99.90;;;;;;4910426;29;20048;-68
2022/07/12 23:57:48;;;;;;;6.95;5.75;;;21.80;99.90;;;;;;4930611;29;20361;-68
